Time;durP1;ratioP1;P1;durP2;ratioP2;P2;SDS_P1;SDS_P2;PMS_P1;PMS_P2;Temp;Humidity;BMP_temperature;BMP_pressure;BME280_temperature;BME280_humidity;BME280_pressure;Samples;Min_cycle;Max_cycle;Signal;HPM_P1;HPM_P2
2022/10/19 00:01:51;;;;;;;19.48;12.50;;;;;;;9.73;100.00;101659.50;5039388;28;20068;-82
2022/10/19 00:04:16;;;;;;;19.05;10.15;;;;;;;9.71;100.00;101661.22;5036474;28;20036;-82
2022/10/19 00:06:41;;;;;;;19.20;9.45;;;;;;;9.49;100.00;101663.50;5032746;28;20029;-82
2022/10/19 00:09:10;;;;;;;31.45;10.20;;;;;;;9.37;100.00;101664.19;5034784;28;20092;-82
2022/10/19 00:11:39;;;;;;;117.03;12.45;;;;;;;9.31;100.00;101665.84;5039435;28;20535;-82
2022/10/19 00:14:05;;;;;;;53.88;11.43;;;;;;;9.21;100.00;101663.03;5038847;28;20033;-82
2022/10/19 00:16:33;;;;;;;36.45;12.50;;;;;;;9.21;100.00;101673.56;5038920;28;20515;-82
2022/10/19 00:19:01;;;;;;;21.92;10.57;;;;;;;9.18;100.00;101675.28;5038369;28;20074;-82
2022/10/19 00:21:27;;;;;;;21.48;9.82;;;;;;;9.22;100.00;101674.44;5039157;28;20040;-82
2022/10/19 00:23:52;;;;;;;96.38;12.38;;;;;;;9.19;100.00;101685.81;5038965;28;20034;-82
2022/10/19 00:26:18;;;;;;;67.68;10.82;;;;;;;9.11;100.00;101690.06;5036946;28;20037;-82
2022/10/19 00:28:43;;;;;;;66.93;11.85;;;;;;;9.11;100.00;101682.16;5036633;28;20041;-82
2022/10/19 00:31:15;;;;;;;38.83;13.98;;;;;;;9.16;100.00;101684.88;5037804;28;20049;-81
2022/10/19 00:33:42;;;;;;;29.25;13.05;;;;;;;9.15;100.00;101677.84;5035518;28;20039;-82
2022/10/19 00:36:22;;;;;;;92.18;15.10;;;;;;;9.13;100.00;101680.44;5038580;28;20041;-82
2022/10/19 00:38:48;;;;;;;45.80;15.10;;;;;;;9.14;100.00;101676.97;5034166;28;20484;-82
2022/10/19 00:41:14;;;;;;;33.78;15.00;;;;;;;9.04;100.00;101677.66;5029262;28;20041;-82
2022/10/19 00:43:58;;;;;;;31.73;13.75;;;;;;;9.09;100.00;101668.09;5038358;28;20044;-82
2022/10/19 00:46:25;;;;;;;26.02;13.43;;;;;;;9.01;100.00;101672.31;5035329;28;20128;-82
2022/10/19 00:48:56;;;;;;;30.45;13.25;;;;;;;9.00;100.00;101675.81;5033980;28;20064;-82
2022/10/19 00:51:24;;;;;;;23.75;12.93;;;;;;;8.96;100.00;101673.97;5037806;28;20037;-82
2022/10/19 00:53:49;;;;;;;18.63;12.20;;;;;;;8.84;100.00;101669.38;5034889;28;20033;-82
2022/10/19 00:56:16;;;;;;;17.33;11.10;;;;;;;8.76;100.00;101669.22;5046245;28;20087;-81
2022/10/19 00:58:43;;;;;;;25.45;13.13;;;;;;;8.76;100.00;101674.50;5035129;28;20113;-82
2022/10/19 01:01:12;;;;;;;20.83;12.57;;;;;;;8.80;100.00;101671.91;5037275;28;20068;-82
2022/10/19 01:03:38;;;;;;;21.88;13.30;;;;;;;8.81;100.00;101676.34;5025398;28;20042;-82
2022/10/19 01:06:04;;;;;;;22.58;13.98;;;;;;;8.80;100.00;101677.19;5036364;28;20041;-82
2022/10/19 01:08:29;;;;;;;20.10;12.90;;;;;;;8.85;100.00;101676.41;5039436;28;20048;-82
2022/10/19 01:11:16;;;;;;;22.15;11.15;;;;;;;8.75;100.00;101671.81;5040413;28;20035;-82
2022/10/19 01:13:49;;;;;;;20.70;11.52;;;;;;;8.73;100.00;101663.03;5041520;28;20037;-82
2022/10/19 01:16:44;;;;;;;23.83;11.98;;;;;;;8.80;100.00;101672.78;5039274;28;20041;-82
2022/10/19 01:19:55;;;;;;;20.55;11.93;;;;;;;8.92;100.00;101667.78;5030497;28;20068;-82
2022/10/19 01:22:40;;;;;;;18.10;11.43;;;;;;;8.97;100.00;101673.13;5043444;28;20034;-82
2022/10/19 01:25:22;;;;;;;19.05;12.13;;;;;;;8.94;100.00;101667.81;5049040;28;20049;-82
2022/10/19 01:28:06;;;;;;;17.80;12.45;;;;;;;8.96;100.00;101668.69;5065577;28;20029;-82
2022/10/19 01:30:50;;;;;;;16.23;11.98;;;;;;;9.08;100.00;101663.66;5040214;28;20029;-82
2022/10/19 01:33:37;;;;;;;14.27;9.00;;;;;;;9.24;100.00;101675.38;5051429;28;20033;-82
2022/10/19 01:36:21;;;;;;;24.35;13.25;;;;;;;9.32;100.00;101668.47;5049666;28;20045;-82
2022/10/19 01:39:22;;;;;;;17.30;13.40;;;;;;;9.40;100.00;101673.88;5066333;28;20033;-82
2022/10/19 01:42:19;;;;;;;25.17;15.40;;;;;;;9.44;100.00;101676.59;5058817;28;20053;-82
2022/10/19 01:44:53;;;;;;;26.10;13.95;;;;;;;9.41;100.00;101671.28;5049345;28;20048;-82
2022/10/19 01:47:26;;;;;;;20.88;14.05;;;;;;;9.39;100.00;101672.13;5050705;28;20094;-82
2022/10/19 01:50:02;;;;;;;20.95;15.65;;;;;;;9.37;100.00;101664.19;5052106;28;20092;-82
2022/10/19 01:52:30;;;;;;;30.02;14.85;;;;;;;9.36;100.00;101665.06;5051313;28;20116;-81
2022/10/19 01:54:59;;;;;;;20.67;14.15;;;;;;;9.38;100.00;101675.63;5050585;28;20041;-82
2022/10/19 01:57:31;;;;;;;21.50;14.23;;;;;;;9.40;100.00;101673.88;5050720;28;20044;-82
2022/10/19 01:59:57;;;;;;;22.20;14.15;;;;;;;9.48;100.00;101664.34;5049950;28;20093;-82
2022/10/19 02:02:24;;;;;;;27.42;14.30;;;;;;;9.45;100.00;101659.03;5051377;28;20068;-82
2022/10/19 02:04:52;;;;;;;27.83;14.32;;;;;;;9.48;100.00;101659.09;5044239;28;20064;-82
2022/10/19 02:07:21;;;;;;;20.38;13.43;;;;;;;9.46;100.00;101655.56;5050273;28;20105;-82
2022/10/19 02:09:46;;;;;;;19.33;14.40;;;;;;;9.46;100.00;101660.84;5029760;28;20041;-82
2022/10/19 02:12:12;;;;;;;20.83;13.85;;;;;;;9.50;100.00;101656.47;5049965;28;20037;-83
2022/10/19 02:14:43;;;;;;;20.52;13.25;;;;;;;9.53;100.00;101669.69;5050994;28;20085;-83
2022/10/19 02:17:12;;;;;;;24.45;12.93;;;;;;;9.52;100.00;101653.00;5037728;28;20041;-82
2022/10/19 02:19:38;;;;;;;29.08;15.32;;;;;;;9.55;100.00;101666.22;5058673;28;20037;-83
2022/10/19 02:22:03;;;;;;;20.80;14.25;;;;;;;9.58;100.00;101660.13;5050049;28;20095;-82
2022/10/19 02:24:29;;;;;;;19.10;13.55;;;;;;;9.66;100.00;101658.50;5049730;28;20041;-83
2022/10/19 02:26:55;;;;;;;19.00;12.93;;;;;;;9.63;100.00;101666.34;5049670;28;20041;-83
2022/10/19 02:29:21;;;;;;;16.63;12.15;;;;;;;9.66;100.00;101664.66;5032504;28;20511;-82
2022/10/19 02:31:46;;;;;;;18.38;11.98;;;;;;;9.68;100.00;101671.72;5048977;28;20033;-83
2022/10/19 02:34:12;;;;;;;18.88;13.57;;;;;;;9.65;100.00;101660.25;5048862;28;20037;-83
2022/10/19 02:36:38;;;;;;;14.05;11.68;;;;;;;9.70;100.00;101668.25;5049257;28;20041;-82
2022/10/19 02:39:05;;;;;;;18.92;12.70;;;;;;;9.70;100.00;101656.81;5049418;28;20040;-83
2022/10/19 02:41:39;;;;;;;17.33;12.80;;;;;;;9.69;100.00;101657.66;5048653;28;20044;-83
2022/10/19 02:44:26;;;;;;;29.77;14.63;;;;;;;9.65;100.00;101649.69;5047824;28;20036;-82
2022/10/19 02:47:05;;;;;;;20.55;14.05;;;;;;;9.61;100.00;101650.50;5047312;28;20037;-82
2022/10/19 02:49:34;;;;;;;22.13;13.65;;;;;;;9.62;100.00;101647.03;5038022;28;20046;-82
2022/10/19 02:52:04;;;;;;;17.10;13.38;;;;;;;9.62;100.00;101649.66;5049642;28;20045;-83
2022/10/19 02:54:29;;;;;;;22.85;13.73;;;;;;;9.61;100.00;101647.88;5047956;28;20041;-83
2022/10/19 02:56:56;;;;;;;23.20;13.60;;;;;;;9.72;100.00;101647.16;5045183;28;20044;-83
2022/10/19 02:59:22;;;;;;;23.17;13.18;;;;;;;9.75;100.00;101653.38;5037679;28;20515;-82
2022/10/19 03:01:47;;;;;;;21.15;13.23;;;;;;;9.76;100.00;101651.63;5048091;28;20040;-82
2022/10/19 03:04:12;;;;;;;24.85;12.95;;;;;;;9.72;100.00;101653.34;5045792;28;20037;-83
2022/10/19 03:06:38;;;;;;;29.80;14.93;;;;;;;9.72;100.00;101648.06;5042050;28;20037;-83
2022/10/19 03:09:03;;;;;;;22.20;13.77;;;;;;;9.74;100.00;101650.69;5041950;28;20041;-82
2022/10/19 03:11:28;;;;;;;21.98;13.20;;;;;;;9.71;100.00;101653.31;5048451;28;20053;-83
2022/10/19 03:13:54;;;;;;;26.58;13.75;;;;;;;9.68;100.00;101650.63;5044189;28;20124;-82
2022/10/19 03:16:19;;;;;;;22.90;14.15;;;;;;;9.71;100.00;101648.91;5047237;28;20042;-82
2022/10/19 03:18:47;;;;;;;18.42;12.90;;;;;;;9.73;100.00;101646.31;5048563;28;20381;-83
2022/10/19 03:21:13;;;;;;;19.65;13.57;;;;;;;9.74;100.00;101645.44;5048391;28;20029;-83
2022/10/19 03:23:39;;;;;;;19.20;13.32;;;;;;;9.76;100.00;101654.25;5048028;28;20029;-83
2022/10/19 03:26:05;;;;;;;18.30;13.50;;;;;;;9.77;100.00;101653.38;5049776;28;20112;-83
2022/10/19 03:28:31;;;;;;;21.83;12.82;;;;;;;9.77;100.00;101654.28;5043217;28;20050;-82
2022/10/19 03:30:56;;;;;;;22.27;13.48;;;;;;;9.78;100.00;101656.06;5047577;28;20044;-82
2022/10/19 03:33:22;;;;;;;22.38;13.32;;;;;;;9.77;100.00;101656.03;5045772;28;20124;-82
2022/10/19 03:35:47;;;;;;;21.65;13.77;;;;;;;9.73;100.00;101656.84;5046804;28;20060;-83
2022/10/19 03:38:13;;;;;;;25.35;13.50;;;;;;;9.77;100.00;101653.38;5052657;28;20578;-82
2022/10/19 03:40:38;;;;;;;26.23;14.45;;;;;;;9.74;100.00;101651.59;5046330;28;20120;-83
2022/10/19 03:43:04;;;;;;;22.00;14.50;;;;;;;9.74;100.00;101656.84;5046652;28;20063;-83
2022/10/19 03:45:29;;;;;;;32.63;15.25;;;;;;;9.71;100.00;101661.22;5042990;28;20093;-84
2022/10/19 03:47:54;;;;;;;31.15;14.00;;;;;;;9.71;100.00;101669.13;5044741;28;20034;-83
2022/10/19 03:50:20;;;;;;;26.60;14.75;;;;;;;9.72;100.00;101673.50;5046624;28;20033;-83
2022/10/19 03:52:48;;;;;;;26.58;15.02;;;;;;;9.68;100.00;101663.81;5045848;28;20033;-84
2022/10/19 03:55:14;;;;;;;25.08;14.13;;;;;;;9.71;100.00;101666.47;5044768;28;20079;-83
2022/10/19 03:57:39;;;;;;;24.70;14.68;;;;;;;9.68;100.00;101669.06;5045511;28;20040;-83
2022/10/19 04:00:06;;;;;;;27.70;14.32;;;;;;;9.73;100.00;101673.56;5041421;28;20041;-83
2022/10/19 04:02:37;;;;;;;;;;;;;;;9.70;100.00;101672.63;5043720;28;20083;-83
2022/10/19 04:05:02;;;;;;;18.60;13.43;;;;;;;9.71;100.00;101670.00;5041324;28;19917;-83
2022/10/19 04:07:27;;;;;;;20.88;13.85;;;;;;;9.68;100.00;101664.69;5032809;28;20041;-83
2022/10/19 04:09:53;;;;;;;21.27;13.77;;;;;;;9.70;100.00;101668.25;5052057;28;20120;-83
2022/10/19 04:12:18;;;;;;;30.30;15.03;;;;;;;9.65;100.00;101673.44;5033264;28;20132;-84
2022/10/19 04:14:43;;;;;;;19.17;13.15;;;;;;;9.75;100.00;101678.84;5034877;28;20062;-84
2022/10/19 04:17:09;;;;;;;21.80;12.45;;;;;;;9.69;100.00;101681.38;5042142;28;20033;-82
2022/10/19 04:19:35;;;;;;;21.50;14.20;;;;;;;9.69;100.00;101681.38;5039627;28;20086;-83
2022/10/19 04:22:00;;;;;;;21.95;14.40;;;;;;;9.62;100.00;101678.66;5042559;28;20076;-83
2022/10/19 04:24:26;;;;;;;20.20;13.45;;;;;;;9.68;100.00;101679.63;5033553;28;20026;-82
2022/10/19 04:26:53;;;;;;;26.45;15.48;;;;;;;9.64;100.00;101678.66;5035403;28;20041;-83
2022/10/19 04:29:20;;;;;;;26.98;15.75;;;;;;;9.68;100.00;101679.63;5041736;28;21211;-83
2022/10/19 04:31:50;;;;;;;21.83;14.02;;;;;;;9.75;100.00;101678.84;5036136;28;20021;-84
2022/10/19 04:34:16;;;;;;;22.45;13.55;;;;;;;9.81;100.00;101671.03;5038083;28;20491;-81
2022/10/19 04:36:41;;;;;;;20.75;13.52;;;;;;;9.78;100.00;101674.50;5042851;28;20045;-81
2022/10/19 04:39:07;;;;;;;20.90;12.73;;;;;;;9.81;100.00;101678.94;5031158;28;20026;-81
2022/10/19 04:41:33;;;;;;;23.65;12.63;;;;;;;9.84;100.00;101673.72;5038501;28;20035;-81
2022/10/19 04:44:01;;;;;;;19.13;12.60;;;;;;;9.90;100.00;101676.44;5037726;28;20030;-81
2022/10/19 04:46:28;;;;;;;20.25;13.80;;;;;;;9.94;100.00;101674.75;5034744;28;20032;-81
2022/10/19 04:48:54;;;;;;;17.65;12.63;;;;;;;10.00;100.00;101673.06;5038784;28;20033;-81
2022/10/19 04:51:21;;;;;;;19.50;12.93;;;;;;;10.06;100.00;101678.44;5039750;28;20079;-82
2022/10/19 04:53:46;;;;;;;23.40;13.38;;;;;;;10.04;100.00;101682.81;5041604;28;20056;-82
2022/10/19 04:56:15;;;;;;;22.70;12.27;;;;;;;10.06;100.00;101678.44;5042220;28;20033;-81
2022/10/19 04:58:40;;;;;;;18.45;12.02;;;;;;;10.07;100.00;101682.84;5038173;28;20037;-81
2022/10/19 05:01:10;;;;;;;20.65;12.23;;;;;;;10.04;100.00;101685.44;5041670;28;20030;-81
2022/10/19 05:03:36;;;;;;;22.35;13.07;;;;;;;9.94;100.00;101687.94;5038581;28;20037;-81
2022/10/19 05:06:02;;;;;;;21.02;12.32;;;;;;;9.97;100.00;101683.56;5044263;28;20028;-81
2022/10/19 05:08:27;;;;;;;20.00;11.93;;;;;;;10.00;100.00;101688.88;5037499;28;20022;-81
2022/10/19 05:10:52;;;;;;;19.92;11.88;;;;;;;9.97;100.00;101694.13;5043447;28;20676;-81
2022/10/19 05:13:17;;;;;;;23.48;11.23;;;;;;;10.05;100.00;101697.75;5044979;28;20033;-81
2022/10/19 05:15:43;;;;;;;22.70;11.95;;;;;;;10.12;100.00;101692.59;5044913;28;20052;-81
2022/10/19 05:18:08;;;;;;;18.40;11.30;;;;;;;10.14;100.00;101686.47;5044782;28;20033;-81
2022/10/19 05:20:33;;;;;;;18.83;11.10;;;;;;;10.22;100.00;101687.47;5045181;28;20040;-81
2022/10/19 05:22:59;;;;;;;18.05;10.70;;;;;;;10.24;100.00;101687.47;5045370;28;20030;-81
2022/10/19 05:25:24;;;;;;;16.80;8.55;;;;;;;10.33;100.00;101687.63;5045117;28;20044;-81
2022/10/19 05:27:51;;;;;;;11.40;9.07;;;;;;;10.27;100.00;101695.41;5044842;28;20037;-81
2022/10/19 05:30:17;;;;;;;16.98;9.50;;;;;;;10.15;100.00;101676.81;5044349;28;20143;-81
2022/10/19 05:32:42;;;;;;;12.95;9.32;;;;;;;10.14;100.00;101683.84;5038462;28;20025;-81
2022/10/19 05:35:08;;;;;;;15.55;9.25;;;;;;;10.14;100.00;101690.84;5042159;28;20725;-81
2022/10/19 05:37:33;;;;;;;13.95;8.68;;;;;;;10.16;100.00;101689.13;5040573;28;20101;-81
2022/10/19 05:39:58;;;;;;;19.38;9.30;;;;;;;10.10;100.00;101695.19;5040425;28;20050;-81
2022/10/19 05:42:24;;;;;;;15.77;9.55;;;;;;;10.09;100.00;101689.03;5042835;28;20042;-81
2022/10/19 05:44:49;;;;;;;11.25;9.60;;;;;;;10.09;100.00;101694.31;5042662;28;20048;-81
2022/10/19 05:47:14;;;;;;;17.05;9.25;;;;;;;10.17;100.00;101696.19;5040161;28;20029;-80
2022/10/19 05:49:40;;;;;;;17.40;10.25;;;;;;;10.17;100.00;101691.78;5042069;28;20033;-80
2022/10/19 05:52:05;;;;;;;18.98;10.57;;;;;;;10.15;100.00;101688.25;5046309;28;20044;-81
2022/10/19 05:54:30;;;;;;;15.73;9.73;;;;;;;10.19;100.00;101691.78;5046953;28;20029;-81
2022/10/19 05:56:56;;;;;;;17.10;9.40;;;;;;;10.28;100.00;101700.75;5046158;28;20048;-81
2022/10/19 05:59:22;;;;;;;20.75;10.23;;;;;;;10.29;100.00;101699.00;5043293;28;20399;-81
2022/10/19 06:01:47;;;;;;;17.48;9.55;;;;;;;10.29;100.00;101706.91;5045043;28;20033;-81
2022/10/19 06:04:13;;;;;;;13.32;8.48;;;;;;;10.31;100.00;101713.13;5037900;28;20040;-81
2022/10/19 06:06:40;;;;;;;12.90;8.57;;;;;;;10.23;100.00;101718.25;5046982;28;20034;-81
2022/10/19 06:09:06;;;;;;;15.95;9.32;;;;;;;10.27;100.00;101719.16;5051392;28;20093;-81
2022/10/19 06:11:33;;;;;;;13.18;8.80;;;;;;;10.25;100.00;101723.56;5050215;28;20531;-81
2022/10/19 06:14:02;;;;;;;18.35;9.85;;;;;;;10.29;100.00;101725.38;5046532;28;20033;-81
2022/10/19 06:16:29;;;;;;;13.38;9.32;;;;;;;10.35;100.00;101728.13;5046333;28;20078;-81
2022/10/19 06:18:55;;;;;;;16.70;8.68;;;;;;;10.38;100.00;101725.53;5041962;28;20033;-81
2022/10/19 06:21:23;;;;;;;19.65;9.45;;;;;;;10.35;100.00;101733.41;5039694;28;20466;-81
2022/10/19 06:24:06;;;;;;;18.15;9.43;;;;;;;10.28;100.00;101731.53;5043923;28;20060;-80
2022/10/19 06:26:33;;;;;;;10.57;9.18;;;;;;;10.34;100.00;101741.28;5059869;28;20040;-81
2022/10/19 06:28:59;;;;;;;15.63;9.77;;;;;;;10.46;100.00;101738.84;5044647;28;20045;-80
2022/10/19 06:31:26;;;;;;;15.23;9.13;;;;;;;10.50;100.00;101743.28;5044363;28;20037;-81
2022/10/19 06:33:52;;;;;;;14.50;10.00;;;;;;;10.48;100.00;101740.63;5043083;28;20037;-81
2022/10/19 06:36:20;;;;;;;15.52;9.13;;;;;;;10.55;100.00;101746.88;5042910;28;20044;-81
2022/10/19 06:38:46;;;;;;;22.45;8.93;;;;;;;10.57;100.00;101742.50;5041994;28;20041;-81
2022/10/19 06:41:11;;;;;;;14.15;8.63;;;;;;;10.61;100.00;101735.50;5042157;28;20029;-80
2022/10/19 06:43:37;;;;;;;14.45;9.02;;;;;;;10.55;100.00;101746.88;5037013;28;20448;-81
2022/10/19 06:46:04;;;;;;;17.58;9.55;;;;;;;10.50;100.00;101751.19;5041422;28;20040;-81
2022/10/19 06:48:29;;;;;;;20.73;11.38;;;;;;;10.55;100.00;101743.34;5037308;28;20041;-81
2022/10/19 06:50:56;;;;;;;15.93;11.38;;;;;;;10.58;100.00;101756.56;5040785;28;20056;-80
2022/10/19 06:53:22;;;;;;;12.38;9.38;;;;;;;10.62;100.00;101747.84;5039705;28;20045;-80
2022/10/19 06:55:47;;;;;;;18.40;10.70;;;;;;;10.65;100.00;101754.03;5039891;28;20037;-81
2022/10/19 06:58:12;;;;;;;12.88;11.40;;;;;;;10.71;100.00;101747.94;5037003;28;20048;-80
2022/10/19 07:00:38;;;;;;;14.07;8.95;;;;;;;10.63;100.00;101753.13;5037252;28;20060;-80
2022/10/19 07:03:03;;;;;;;16.60;8.85;;;;;;;10.70;100.00;101756.75;5025995;28;20079;-80
2022/10/19 07:05:28;;;;;;;14.18;9.85;;;;;;;10.68;100.00;101764.63;5033165;28;20045;-80
2022/10/19 07:07:54;;;;;;;13.95;9.23;;;;;;;10.73;100.00;101756.78;5031198;28;20044;-80
2022/10/19 07:10:19;;;;;;;13.50;9.55;;;;;;;10.68;100.00;101766.41;5037387;28;20041;-80
2022/10/19 07:12:44;;;;;;;10.50;8.95;;;;;;;10.80;100.00;101763.94;5035402;28;20042;-80
2022/10/19 07:15:09;;;;;;;13.32;8.98;;;;;;;10.75;100.00;101770.91;5036414;28;20092;-80
2022/10/19 07:17:35;;;;;;;10.35;9.27;;;;;;;10.83;100.00;101763.97;5036066;28;20045;-80
2022/10/19 07:20:01;;;;;;;14.85;10.30;;;;;;;10.89;100.00;101774.59;5034353;28;20053;-80
2022/10/19 07:22:26;;;;;;;13.65;8.48;;;;;;;10.84;100.00;101776.28;5034654;28;20446;-80
2022/10/19 07:24:51;;;;;;;19.40;10.32;;;;;;;10.94;100.00;101767.59;5035939;28;20403;-81
2022/10/19 07:27:17;;;;;;;14.80;9.30;;;;;;;10.94;100.00;101764.97;5034675;28;20407;-81
2022/10/19 07:29:43;;;;;;;12.10;9.55;;;;;;;11.10;100.00;101771.31;5026285;28;20480;-80
2022/10/19 07:32:08;;;;;;;14.68;9.25;;;;;;;11.16;100.00;101770.50;5032714;28;20488;-80
2022/10/19 07:34:33;;;;;;;14.00;8.68;;;;;;;11.31;100.00;101768.03;5033905;28;20131;-80
2022/10/19 07:36:59;;;;;;;12.38;9.63;;;;;;;11.39;100.00;101776.91;5034785;28;20407;-80
2022/10/19 07:39:24;;;;;;;13.95;10.30;;;;;;;11.33;100.00;101782.16;5031272;28;20053;-80
2022/10/19 07:41:49;;;;;;;13.95;10.18;;;;;;;11.41;100.00;101779.59;5035080;28;20045;-80
2022/10/19 07:44:15;;;;;;;10.82;9.45;;;;;;;11.39;100.00;101773.38;5033781;28;20034;-80
2022/10/19 07:46:41;;;;;;;11.15;10.00;;;;;;;11.37;100.00;101776.03;5033442;28;20040;-80
2022/10/19 07:49:10;;;;;;;16.58;10.80;;;;;;;11.49;100.00;101779.66;5033424;28;20442;-80
2022/10/19 07:51:36;;;;;;;14.48;9.57;;;;;;;11.58;100.00;101775.38;5034961;28;20041;-80
2022/10/19 07:54:02;;;;;;;8.93;8.00;;;;;;;11.57;100.00;101785.91;5034591;28;20060;-80
2022/10/19 07:56:28;;;;;;;11.15;9.80;;;;;;;11.49;100.00;101788.47;5036397;28;20047;-80
2022/10/19 07:58:55;;;;;;;10.60;9.60;;;;;;;11.56;100.00;101784.16;5041373;28;20080;-80
2022/10/19 08:01:23;;;;;;;9.85;9.05;;;;;;;11.63;100.00;101783.31;5034297;28;20483;-80
2022/10/19 08:03:51;;;;;;;10.43;9.50;;;;;;;11.65;100.00;101788.63;5033898;28;20033;-80
2022/10/19 08:06:17;;;;;;;11.15;9.45;;;;;;;11.66;100.00;101793.94;5032619;28;20044;-80
2022/10/19 08:08:45;;;;;;;12.70;10.10;;;;;;;11.68;100.00;101796.59;5030132;28;20095;-80
2022/10/19 08:11:18;;;;;;;12.18;10.05;;;;;;;11.75;100.00;101790.50;5032900;28;20080;-80
2022/10/19 08:13:44;;;;;;;15.30;9.48;;;;;;;11.83;100.00;101794.97;5028819;28;20099;-80
2022/10/19 08:16:28;;;;;;;14.07;10.15;;;;;;;11.75;100.00;101793.13;5032534;28;20053;-80
2022/10/19 08:18:59;;;;;;;14.80;9.85;;;;;;;11.78;100.00;101794.03;5029516;28;20038;-80
2022/10/19 08:21:26;;;;;;;11.93;10.73;;;;;;;11.95;100.00;101793.34;5034084;28;20037;-80
2022/10/19 08:23:51;;;;;;;10.70;9.65;;;;;;;11.98;100.00;101798.66;5030556;28;20053;-80
2022/10/19 08:26:17;;;;;;;10.70;9.70;;;;;;;11.94;100.00;101796.84;5031276;28;20514;-80
2022/10/19 08:28:42;;;;;;;11.65;10.23;;;;;;;11.99;100.00;101805.72;5032208;28;20029;-80
2022/10/19 08:31:09;;;;;;;10.68;9.55;;;;;;;12.03;100.00;101803.13;5032640;28;20212;-80
2022/10/19 08:33:34;;;;;;;11.43;10.23;;;;;;;12.02;100.00;101803.09;5033617;28;20092;-80
2022/10/19 08:36:03;;;;;;;17.05;10.75;;;;;;;12.12;100.00;101807.59;5033298;28;20128;-80
2022/10/19 08:38:29;;;;;;;11.55;10.50;;;;;;;12.24;100.00;101812.09;5030550;28;20038;-80
2022/10/19 08:40:56;;;;;;;11.88;10.30;;;;;;;12.31;100.00;101802.44;5033371;28;20045;-80
2022/10/19 08:43:33;;;;;;;11.80;10.63;;;;;;;12.50;99.98;101799.06;5030511;28;20040;-80
2022/10/19 08:46:11;;;;;;;14.43;10.88;;;;;;;12.58;95.98;101802.63;5029810;28;20029;-80
2022/10/19 08:48:41;;;;;;;12.45;10.85;;;;;;;12.64;95.91;101801.78;5031100;28;20102;-80
2022/10/19 08:51:11;;;;;;;13.13;10.32;;;;;;;12.75;94.75;101807.13;5033081;28;20407;-80
2022/10/19 08:53:42;;;;;;;11.73;10.77;;;;;;;12.67;92.48;101800.00;5029657;28;20041;-79
2022/10/19 08:56:28;;;;;;;12.13;9.23;;;;;;;12.85;94.11;101790.41;5030726;28;20037;-80
2022/10/19 08:59:14;;;;;;;12.43;11.30;;;;;;;13.02;92.58;101790.44;5029917;28;20283;-80
2022/10/19 09:02:10;;;;;;;11.88;10.88;;;;;;;13.04;92.47;101788.69;5024019;28;20038;-80
2022/10/19 09:04:39;;;;;;;11.90;10.73;;;;;;;13.22;90.58;101785.22;5029576;28;20025;-79
2022/10/19 09:07:23;;;;;;;10.73;9.82;;;;;;;13.19;88.28;101793.19;5030409;28;20030;-79
2022/10/19 09:10:27;;;;;;;10.23;9.40;;;;;;;13.07;85.81;101781.66;5031204;28;20044;-80
2022/10/19 09:13:01;;;;;;;10.82;9.88;;;;;;;13.16;86.27;101781.69;4933740;29;20047;-80
2022/10/19 09:15:38;;;;;;;11.50;10.50;;;;;;;13.27;87.07;101784.41;5018775;28;20057;-79
2022/10/19 09:18:09;;;;;;;11.80;10.75;;;;;;;13.22;81.34;101785.22;5031240;28;20116;-79
2022/10/19 09:20:37;;;;;;;11.90;9.63;;;;;;;13.18;83.57;101788.75;5027351;28;20042;-79
2022/10/19 09:23:14;;;;;;;12.27;10.07;;;;;;;13.28;79.40;101785.28;5031027;28;20021;-79
2022/10/19 09:25:40;;;;;;;12.88;10.15;;;;;;;13.10;80.02;101792.28;5030314;28;20044;-79
2022/10/19 09:28:18;;;;;;;11.20;10.18;;;;;;;13.21;81.05;101794.97;5034157;28;20026;-79
2022/10/19 09:30:46;;;;;;;10.73;9.85;;;;;;;13.43;79.23;101789.75;5037810;28;20041;-79
2022/10/19 09:33:18;;;;;;;11.02;10.32;;;;;;;13.61;78.34;101788.88;5037172;28;20095;-79
2022/10/19 09:35:45;;;;;;;11.85;11.13;;;;;;;13.59;76.86;101792.41;5038153;28;20183;-79
2022/10/19 09:38:13;;;;;;;10.43;9.63;;;;;;;13.61;77.45;101789.78;5031013;28;20045;-79
2022/10/19 09:40:38;;;;;;;12.35;11.43;;;;;;;13.63;77.25;101797.75;5033641;28;20403;-79
2022/10/19 09:43:18;;;;;;;11.35;10.57;;;;;;;13.77;76.33;101795.97;5029481;28;20040;-79
2022/10/19 09:45:49;;;;;;;18.00;16.48;;;;;;;13.57;73.47;101802.16;5035273;28;20033;-79
2022/10/19 09:48:26;;;;;;;14.75;13.77;;;;;;;13.66;72.10;101797.75;5035761;28;20407;-79
2022/10/19 09:50:56;;;;;;;17.05;15.95;;;;;;;13.56;73.66;101796.84;5045176;28;20133;-79
2022/10/19 09:53:22;;;;;;;22.08;20.77;;;;;;;13.54;72.84;101810.09;5048411;28;20030;-79
2022/10/19 09:56:11;;;;;;;15.07;13.95;;;;;;;13.67;73.36;101804.81;5031893;28;20090;-79
2022/10/19 09:58:46;;;;;;;12.82;12.13;;;;;;;13.80;74.68;101804.81;5018282;28;20072;-79
2022/10/19 10:01:32;;;;;;;14.77;13.82;;;;;;;13.98;75.07;101811.91;5030360;28;20408;-78
2022/10/19 10:04:12;;;;;;;14.30;13.30;;;;;;;14.13;74.66;101810.16;5034329;28;20057;-79
2022/10/19 10:06:39;;;;;;;14.07;13.23;;;;;;;14.31;71.77;101806.59;5037141;28;20037;-79
2022/10/19 10:09:05;;;;;;;16.10;14.93;;;;;;;14.12;72.15;101813.66;5034897;28;20064;-76
2022/10/19 10:11:37;;;;;;;14.05;13.15;;;;;;;14.17;70.16;101812.81;5034745;28;20068;-76
2022/10/19 10:14:34;;;;;;;15.57;14.30;;;;;;;14.24;70.72;101818.97;5045742;28;20476;-77
2022/10/19 10:17:15;;;;;;;14.77;13.88;;;;;;;14.38;70.86;101811.00;5021590;28;20050;-77
2022/10/19 10:19:58;;;;;;;14.27;13.45;;;;;;;14.39;69.73;101808.34;5030276;28;20047;-77
2022/10/19 10:22:35;;;;;;;13.88;13.07;;;;;;;14.37;70.36;101804.81;5032358;28;20034;-77
2022/10/19 10:25:01;;;;;;;18.70;17.58;;;;;;;14.50;70.80;101808.31;5025907;28;20029;-77
2022/10/19 10:27:29;;;;;;;19.50;18.40;;;;;;;14.33;66.92;101811.03;5030704;28;20525;-77
2022/10/19 10:29:55;;;;;;;16.75;15.75;;;;;;;14.05;67.10;101806.63;5033722;28;20060;-76
2022/10/19 10:32:21;;;;;;;17.27;16.20;;;;;;;13.87;68.56;101804.84;5033859;28;20064;-76
2022/10/19 10:35:05;;;;;;;19.60;18.42;;;;;;;13.73;68.43;101805.72;5032752;28;20091;-76
2022/10/19 10:37:38;;;;;;;14.80;13.77;;;;;;;13.85;71.35;101802.16;5010306;28;20046;-76
2022/10/19 10:40:14;;;;;;;16.55;15.65;;;;;;;13.86;68.91;101803.06;5031464;28;20045;-76
2022/10/19 10:42:43;;;;;;;14.10;13.13;;;;;;;13.52;71.16;101803.03;5033414;28;20041;-76
2022/10/19 10:45:19;;;;;;;15.35;14.30;;;;;;;13.50;73.09;101805.66;5033167;28;20076;-76
2022/10/19 10:47:47;;;;;;;15.27;14.10;;;;;;;13.50;72.55;101805.66;5029485;28;20037;-76
2022/10/19 10:50:21;;;;;;;13.98;12.98;;;;;;;13.34;73.14;101798.56;5025543;28;20483;-76
2022/10/19 10:53:02;;;;;;;15.07;14.07;;;;;;;13.40;73.86;101801.22;5013179;28;20075;-76
2022/10/19 10:55:29;;;;;;;14.57;13.80;;;;;;;13.21;74.18;101802.03;5027923;28;20095;-76
2022/10/19 10:58:18;;;;;;;15.88;14.93;;;;;;;13.13;75.08;101802.88;5025444;28;20033;-76
2022/10/19 11:00:45;;;;;;;16.38;15.48;;;;;;;13.21;76.31;101800.25;5024445;28;20091;-76
2022/10/19 11:03:27;;;;;;;15.20;14.38;;;;;;;13.34;76.12;101809.19;5025407;28;20060;-76
2022/10/19 11:05:57;;;;;;;;;;;;;;;13.34;75.79;101817.13;5025059;28;20076;-78
2022/10/19 11:08:31;;;;;;;82.25;77.28;;;;;;;13.25;74.89;101814.41;5033246;28;19921;-78
2022/10/19 11:11:03;;;;;;;18.27;17.17;;;;;;;13.41;74.03;101810.06;5045326;28;20047;-78
2022/10/19 11:13:44;;;;;;;21.30;19.95;;;;;;;13.45;73.16;101810.06;5030915;28;20096;-78
2022/10/19 11:16:15;;;;;;;13.82;12.90;;;;;;;13.53;75.44;101810.97;5030220;28;20049;-78
2022/10/19 11:18:47;;;;;;;16.02;15.02;;;;;;;13.74;71.63;101806.59;5026918;28;20025;-78
2022/10/19 11:21:24;;;;;;;18.48;17.48;;;;;;;13.89;73.66;101803.97;5030209;28;20043;-78